Nearby METAR Reports

 

KCPC - Whiteville, North Carolina, USA
Distance from station: NNE 17mi, 28km
Updated: 03/04/2024 12:50am
Mist, Clear
Mist, Clear
 Wind from calm
Wind: Calm
Temperature: 57°F , 14°C
Dew Point: 57°F , 14°C
Humidity: 100%
Barometer: 30.16 inHg , 1021.3 hPa
Summary: Mist
Clouds: Clear
Visibility: 2 1/2 miles , 4 km
2024/03/04 05:50 KCPC 040550Z AUTO 00000KT 2 1/2SM BR CLR 14/14 A3016 RMK AO2 T01430135 10185 20142 402190142
KCRE - North Myrtle Bea, South Carolina, USA
Distance from station: SSE 19mi, 31km
Updated: 03/04/2024 12:53am
Clear
Clear
 Wind from NNE
Wind: NNE 5 mph , 7 km/h
Temperature: 61°F , 16°C
Dew Point: 57°F , 14°C
Humidity: 88%
Barometer: 30.13 inHg , 1020.3 hPa
Clouds: Clear
Visibility: 10 miles , 16 km
2024/03/04 05:53 KCRE 040553Z AUTO 02004KT 10SM CLR 16/14 A3013 RMK AO1 SLP204 T01560139 10156 20150 58004
 
KHYW - Conway-Horry Cty, South Carolina, USA
Distance from station: SW 22mi, 35km
Updated: 03/04/2024 12:55am
Mist, Clear
Mist, Clear
 Wind from calm
Wind: Calm
Temperature: 54°F , 12°C
Dew Point: 52°F , 11°C
Humidity: 94%
Barometer: 30.15 inHg , 1021 hPa
Summary: Mist
Clouds: Clear
Visibility: 4 miles , 6 km
2024/03/04 05:55 KHYW 040555Z AUTO 00000KT 4SM BR CLR 12/11 A3015 RMK AO2 LTG DSNT E
KMAO - Marion, South Carolina, USA
Distance from station: WNW 28mi, 45km
Updated: 03/04/2024 12:55am
Fog, Overcast
Fog, Overcast
 Wind from calm
Wind: Calm
Temperature: 55°F , 13°C
Dew Point: 55°F , 13°C
Humidity: 100%
Barometer: 30.16 inHg , 1021.3 hPa
Summary: Fog
Clouds: Overcast
Visibility: 1/4 mile , 0.4 km
Cloud details: Overcast 200 ft
2024/03/04 05:55 KMAO 040555Z AUTO 00000KT 1/4SM FG OVC002 13/13 A3016 RMK AO2
 
KMYR - Myrtle Beach, South Carolina, USA
Distance from station: S 28mi, 45km
Updated: 03/04/2024 12:56am
Mostly cloudy
Mostly cloudy
 Wind from NNW
Wind: NNW 6 mph , 9 km/h
Temperature: 57°F , 14°C
Barometer: 30.15 inHg , 1021 hPa
Clouds: Mostly cloudy
Visibility: 10 miles , 16 km
Cloud details: Mostly cloudy 300 ft
2024/03/04 05:56 KMYR 040556Z AUTO 34005KT 10SM BKN003 14/ A3015 RMK AO2 SLP208 T0139 10161 20139 56003
KLBT - Lumberton, North Carolina, USA
Distance from station: NNW 39mi, 62km
Updated: 03/04/2024 1:04am
Mist, Clear
Mist, Clear
 Wind from N
Wind: N 3 mph , 6 km/h
Temperature: 55°F , 13°C
Dew Point: 55°F , 13°C
Humidity: 100%
Barometer: 30.15 inHg , 1021 hPa
Summary: Mist
Clouds: Clear
Visibility: 3 miles , 5 km
2024/03/04 06:04 KLBT 040604Z AUTO 01003KT 3SM BR CLR 13/13 A3015 RMK AO2 T01330133
 
KSUT - Southport, North Carolina, USA
Distance from station: E 46mi, 74km
Updated: 03/04/2024 12:50am
Mostly cloudy
Mostly cloudy
 Wind from NE
Wind: NE 7 mph , 11 km/h
Temperature: 59°F , 15°C
Dew Point: 57°F , 14°C
Humidity: 94%
Barometer: 30.15 inHg , 1021 hPa
Clouds: Mostly cloudy
Visibility: 10 miles , 16 km
Cloud details: Mostly cloudy 800 ft
2024/03/04 05:50 KSUT 040550Z AUTO 05006KT 10SM BKN008 15/14 A3015 RMK AO2 T01510136 10151 20146 402180123
KFLO - Florence, South Carolina, USA
Distance from station: W 50mi, 81km
Updated: 03/04/2024 12:53am
Mist, Clear
Mist, Clear
 Wind from N
Wind: N 5 mph , 7 km/h
Temperature: 57°F , 14°C
Dew Point: 55°F , 13°C
Humidity: 94%
Barometer: 30.15 inHg , 1021 hPa
Summary: Mist
Clouds: Clear
Visibility: 5 miles , 8 km
2024/03/04 05:53 KFLO 040553Z 35004KT 5SM BR CLR 14/13 A3015 RMK AO2 SLP209 T01390133 10189 20133 58000